Time;durP1;ratioP1;P1;durP2;ratioP2;P2;SDS_P1;SDS_P2;PMS_P1;PMS_P2;Temp;Humidity;BMP_temperature;BMP_pressure;BME280_temperature;BME280_humidity;BME280_pressure;Samples;Min_cycle;Max_cycle;Signal;HPM_P1;HPM_P2
2022/09/22 00:01:20;;;;;;;10.77;6.03;;;14.90;93.40;;;;;;5034745;28;19905;-75
2022/09/22 00:03:48;;;;;;;11.88;6.20;;;14.80;93.30;;;;;;5036108;28;20057;-75
2022/09/22 00:06:18;;;;;;;8.90;5.90;;;14.80;93.20;;;;;;5035757;28;20033;-76
2022/09/22 00:08:47;;;;;;;8.57;6.07;;;14.70;93.40;;;;;;5036160;28;20514;-76
2022/09/22 00:11:17;;;;;;;9.43;5.90;;;14.80;93.30;;;;;;5036404;28;20022;-75
2022/09/22 00:14:04;;;;;;;10.48;5.90;;;14.70;93.40;;;;;;5036039;28;20091;-76
2022/09/22 00:16:41;;;;;;;9.88;5.45;;;14.70;93.40;;;;;;5035522;28;20104;-76
2022/09/22 00:19:09;;;;;;;9.52;5.80;;;14.70;93.20;;;;;;5033354;28;20040;-76
2022/09/22 00:21:35;;;;;;;10.15;6.45;;;14.70;93.00;;;;;;5026772;28;20087;-74
2022/09/22 00:24:03;;;;;;;7.22;6.07;;;14.80;92.90;;;;;;5015548;28;20030;-76
2022/09/22 00:26:30;;;;;;;8.80;6.78;;;14.80;92.80;;;;;;5012896;28;20041;-75
2022/09/22 00:28:55;;;;;;;11.07;6.55;;;14.80;92.80;;;;;;5015573;28;20022;-75
2022/09/22 00:31:23;;;;;;;10.70;6.75;;;14.80;92.80;;;;;;5015686;28;20030;-76
2022/09/22 00:33:50;;;;;;;11.25;7.00;;;14.70;92.70;;;;;;5015702;28;20034;-75
2022/09/22 00:36:16;;;;;;;10.30;6.75;;;14.70;92.70;;;;;;5015354;28;20030;-75
2022/09/22 00:38:43;;;;;;;8.65;6.57;;;14.80;92.70;;;;;;5015771;28;20030;-76
2022/09/22 00:41:23;;;;;;;10.45;6.57;;;14.80;92.60;;;;;;5014430;28;20033;-76
2022/09/22 00:44:10;;;;;;;12.98;6.65;;;14.80;92.60;;;;;;5015988;28;20105;-74
2022/09/22 00:46:39;;;;;;;12.73;7.43;;;14.80;92.80;;;;;;5015164;28;20053;-73
2022/09/22 00:49:07;;;;;;;11.15;7.28;;;14.80;92.70;;;;;;5013925;28;20375;-74
2022/09/22 00:51:36;;;;;;;10.50;7.00;;;14.80;92.50;;;;;;5015293;28;20029;-73
2022/09/22 00:54:07;;;;;;;12.30;7.40;;;14.70;92.50;;;;;;5015176;28;20475;-73
2022/09/22 00:56:54;;;;;;;12.30;7.30;;;14.70;92.50;;;;;;5015373;28;20076;-73
2022/09/22 00:59:23;;;;;;;12.55;7.55;;;14.70;92.60;;;;;;5015215;28;20495;-73
2022/09/22 01:01:49;;;;;;;13.63;7.65;;;14.70;92.60;;;;;;5013888;28;20385;-73
2022/09/22 01:04:16;;;;;;;10.93;8.07;;;14.70;92.50;;;;;;5015328;28;20034;-73
2022/09/22 01:06:42;;;;;;;14.65;8.57;;;14.70;92.50;;;;;;5014983;28;20022;-73
2022/09/22 01:09:08;;;;;;;14.40;8.27;;;14.70;92.50;;;;;;5014960;28;20033;-73
2022/09/22 01:11:37;;;;;;;15.75;10.35;;;14.70;92.50;;;;;;5014384;28;20033;-73
2022/09/22 01:14:03;;;;;;;13.45;9.95;;;14.70;92.50;;;;;;5015030;28;20137;-73
2022/09/22 01:16:45;;;;;;;18.40;11.02;;;14.70;92.50;;;;;;5014725;28;20491;-73
2022/09/22 01:19:48;;;;;;;14.27;10.48;;;14.70;92.50;;;;;;5014722;28;20478;-73
2022/09/22 01:22:54;;;;;;;15.82;10.48;;;14.70;92.80;;;;;;5003183;28;20168;-72
2022/09/22 01:25:52;;;;;;;13.80;10.23;;;14.60;92.90;;;;;;5007903;28;20502;-73
2022/09/22 01:28:48;;;;;;;13.63;10.88;;;14.60;93.10;;;;;;5014565;28;20549;-73
2022/09/22 01:31:35;;;;;;;17.58;10.93;;;14.50;93.00;;;;;;5013691;28;20072;-73
2022/09/22 01:34:19;;;;;;;14.35;11.38;;;14.50;93.20;;;;;;5014879;28;20087;-74
2022/09/22 01:37:03;;;;;;;16.77;11.73;;;14.40;93.30;;;;;;5014490;28;20058;-74
2022/09/22 01:40:19;;;;;;;14.18;11.15;;;14.40;93.30;;;;;;5014587;28;20030;-73
2022/09/22 01:42:57;;;;;;;18.75;11.23;;;14.40;93.40;;;;;;5012229;28;20056;-73
2022/09/22 01:45:28;;;;;;;15.98;11.55;;;14.40;93.40;;;;;;5012445;28;20033;-73
2022/09/22 01:48:05;;;;;;;14.25;11.77;;;14.30;93.50;;;;;;5013353;28;20033;-73
2022/09/22 01:50:41;;;;;;;16.33;10.48;;;14.30;93.30;;;;;;5014146;28;20025;-74
2022/09/22 01:53:13;;;;;;;17.98;11.40;;;14.30;93.40;;;;;;5014396;28;20037;-75
2022/09/22 01:55:42;;;;;;;13.10;10.65;;;14.30;93.50;;;;;;5014397;28;20026;-75
2022/09/22 01:58:13;;;;;;;13.27;11.00;;;14.20;93.60;;;;;;5014161;28;20034;-75
2022/09/22 02:00:44;;;;;;;17.00;11.40;;;14.20;93.60;;;;;;5014032;28;20018;-75
2022/09/22 02:03:23;;;;;;;13.43;11.30;;;14.20;93.80;;;;;;5014688;28;20026;-75
2022/09/22 02:05:55;;;;;;;13.95;11.27;;;14.30;93.50;;;;;;5014457;28;20029;-73
2022/09/22 02:08:29;;;;;;;13.33;11.60;;;14.20;93.50;;;;;;5014030;28;20029;-74
2022/09/22 02:10:59;;;;;;;12.85;11.07;;;14.20;93.50;;;;;;5013775;28;20022;-74
2022/09/22 02:13:25;;;;;;;15.25;11.93;;;14.20;93.70;;;;;;5013780;28;20041;-73
2022/09/22 02:16:00;;;;;;;16.05;12.48;;;14.10;93.70;;;;;;5013712;28;20025;-74
2022/09/22 02:18:30;;;;;;;14.20;11.43;;;14.20;93.70;;;;;;5013895;28;20026;-75
2022/09/22 02:20:56;;;;;;;14.93;11.88;;;14.10;93.70;;;;;;5013676;28;20510;-74
2022/09/22 02:23:22;;;;;;;19.10;12.43;;;14.10;93.80;;;;;;5012970;28;20081;-73
2022/09/22 02:25:48;;;;;;;15.38;11.95;;;14.20;93.70;;;;;;5012588;28;20491;-73
2022/09/22 02:28:17;;;;;;;18.70;12.13;;;14.20;93.50;;;;;;5013569;28;20029;-73
2022/09/22 02:30:46;;;;;;;14.65;12.13;;;14.20;93.40;;;;;;5013355;28;20066;-74
2022/09/22 02:33:12;;;;;;;13.05;11.57;;;14.20;93.40;;;;;;5013305;28;20484;-74
2022/09/22 02:35:39;;;;;;;12.93;11.40;;;14.20;93.50;;;;;;5013702;28;20030;-75
2022/09/22 02:38:23;;;;;;;15.25;12.18;;;14.20;93.30;;;;;;5013502;28;20025;-75
2022/09/22 02:40:51;;;;;;;17.25;12.55;;;14.20;93.20;;;;;;5012336;28;20471;-76
2022/09/22 02:43:41;;;;;;;19.15;12.27;;;14.20;93.30;;;;;;5013723;28;20510;-75
2022/09/22 02:46:36;;;;;;;14.32;11.98;;;14.20;93.10;;;;;;5013036;28;20034;-75
2022/09/22 02:49:06;;;;;;;13.65;12.02;;;14.20;93.10;;;;;;5013260;28;20018;-75
2022/09/22 02:51:33;;;;;;;16.27;13.27;;;14.10;93.30;;;;;;5013498;28;20049;-75
2022/09/22 02:54:00;;;;;;;16.25;11.93;;;14.10;93.40;;;;;;5013051;28;20032;-75
2022/09/22 02:56:26;;;;;;;20.00;12.15;;;14.10;93.40;;;;;;5013428;28;20423;-74
2022/09/22 02:58:51;;;;;;;16.38;11.73;;;14.10;93.60;;;;;;5013050;28;20510;-75
2022/09/22 03:01:17;;;;;;;18.80;12.23;;;14.10;93.50;;;;;;5013388;28;20471;-73
2022/09/22 03:03:43;;;;;;;17.20;13.45;;;14.10;93.40;;;;;;5013410;28;20037;-73
2022/09/22 03:06:08;;;;;;;17.98;12.23;;;14.10;93.50;;;;;;5011893;28;20038;-72
2022/09/22 03:08:34;;;;;;;18.23;12.82;;;14.10;93.60;;;;;;5013274;28;20033;-73
2022/09/22 03:10:59;;;;;;;17.17;13.25;;;14.00;93.30;;;;;;5013033;28;20125;-73
2022/09/22 03:13:25;;;;;;;16.85;12.70;;;14.00;93.40;;;;;;5013019;28;20042;-73
2022/09/22 03:15:50;;;;;;;17.38;13.77;;;14.00;93.70;;;;;;5013045;28;20022;-73
2022/09/22 03:18:16;;;;;;;24.02;14.68;;;14.00;93.50;;;;;;5012899;28;20030;-73
2022/09/22 03:20:42;;;;;;;19.85;15.00;;;14.00;93.60;;;;;;5012866;28;20498;-74
2022/09/22 03:23:08;;;;;;;18.83;14.45;;;14.00;93.40;;;;;;5013053;28;20384;-73
2022/09/22 03:25:33;;;;;;;20.05;14.77;;;14.00;93.40;;;;;;5013008;28;20061;-73
2022/09/22 03:27:59;;;;;;;20.55;15.07;;;14.00;93.30;;;;;;5012738;28;20061;-74
2022/09/22 03:30:24;;;;;;;20.52;14.10;;;14.00;93.30;;;;;;5012845;28;20033;-75
2022/09/22 03:32:50;;;;;;;20.17;14.18;;;13.90;93.40;;;;;;5012619;28;20030;-74
2022/09/22 03:35:16;;;;;;;23.05;14.20;;;13.90;93.30;;;;;;5015644;28;20521;-75
2022/09/22 03:37:41;;;;;;;17.23;13.85;;;13.90;93.50;;;;;;5015484;28;20022;-74
2022/09/22 03:40:07;;;;;;;20.70;14.70;;;13.90;93.40;;;;;;5015228;28;20157;-73
2022/09/22 03:42:35;;;;;;;19.90;14.52;;;13.90;93.50;;;;;;5016551;28;20026;-74
2022/09/22 03:45:03;;;;;;;20.65;13.35;;;13.90;93.50;;;;;;5016456;28;20022;-75
2022/09/22 03:47:28;;;;;;;19.70;14.40;;;13.80;93.40;;;;;;5016678;28;20029;-73
2022/09/22 03:49:54;;;;;;;18.40;13.07;;;13.80;93.60;;;;;;5016432;28;20030;-75
2022/09/22 03:52:19;;;;;;;18.88;14.50;;;13.80;93.50;;;;;;5016536;28;20052;-75
2022/09/22 03:54:45;;;;;;;19.67;14.40;;;13.80;93.60;;;;;;5016307;28;20040;-74
2022/09/22 03:57:10;;;;;;;18.00;13.65;;;13.70;93.70;;;;;;5016310;28;20060;-75
2022/09/22 03:59:36;;;;;;;17.95;14.18;;;13.70;93.70;;;;;;5016369;28;20026;-74
2022/09/22 04:02:03;;;;;;;15.88;13.93;;;13.70;93.80;;;;;;5016144;28;20543;-75
2022/09/22 04:04:29;;;;;;;19.08;13.05;;;13.70;94.00;;;;;;5016430;28;20076;-75
2022/09/22 04:06:54;;;;;;;19.67;14.80;;;13.70;93.90;;;;;;5016180;28;20026;-76
2022/09/22 04:09:20;;;;;;;17.45;13.05;;;13.60;93.80;;;;;;5014974;28;20029;-75
2022/09/22 04:11:45;;;;;;;16.23;13.80;;;13.60;93.90;;;;;;5014567;28;20029;-75
2022/09/22 04:14:11;;;;;;;17.58;13.95;;;13.60;94.00;;;;;;5016072;28;20038;-76
2022/09/22 04:16:41;;;;;;;15.90;13.50;;;13.60;94.00;;;;;;5016439;28;20097;-75
2022/09/22 04:19:09;;;;;;;18.15;13.57;;;13.60;94.10;;;;;;5019455;28;20501;-76
2022/09/22 04:21:35;;;;;;;18.55;14.20;;;13.60;94.20;;;;;;5014610;28;20044;-75
2022/09/22 04:24:01;;;;;;;15.88;13.55;;;13.50;94.30;;;;;;5027657;28;20018;-75
2022/09/22 04:26:27;;;;;;;18.10;14.00;;;13.50;94.20;;;;;;5014465;28;20391;-74
2022/09/22 04:28:52;;;;;;;18.80;13.52;;;13.50;94.20;;;;;;5016082;28;20029;-75
2022/09/22 04:31:18;;;;;;;16.75;12.65;;;13.50;94.10;;;;;;5024275;28;20049;-75
2022/09/22 04:33:44;;;;;;;18.92;13.63;;;13.50;94.30;;;;;;5035280;28;20100;-75
2022/09/22 04:36:09;;;;;;;15.18;13.00;;;13.50;94.20;;;;;;5029679;28;20029;-74
2022/09/22 04:38:35;;;;;;;20.58;13.48;;;13.50;94.20;;;;;;5035454;28;20039;-75
2022/09/22 04:41:01;;;;;;;15.07;13.50;;;13.40;94.20;;;;;;5027391;28;20034;-75
2022/09/22 04:43:27;;;;;;;14.52;12.75;;;13.40;94.30;;;;;;5035306;28;20025;-75
2022/09/22 04:45:52;;;;;;;18.42;13.30;;;13.30;94.20;;;;;;5018876;28;20460;-76
2022/09/22 04:48:18;;;;;;;18.95;14.32;;;13.30;94.20;;;;;;5027104;28;20112;-75
2022/09/22 04:50:44;;;;;;;17.98;14.02;;;13.30;94.20;;;;;;5029342;28;20048;-75
2022/09/22 04:53:11;;;;;;;31.90;16.05;;;13.30;94.30;;;;;;5025758;28;20102;-77
2022/09/22 04:55:37;;;;;;;29.83;18.33;;;13.40;93.50;;;;;;5039200;28;20115;-77
2022/09/22 04:58:03;;;;;;;32.70;18.25;;;14.00;92.00;;;;;;5054886;28;20090;-76
2022/09/22 05:00:29;;;;;;;28.98;18.48;;;14.40;91.20;;;;;;5037474;28;20124;-76
2022/09/22 05:02:55;;;;;;;29.15;18.88;;;14.60;90.70;;;;;;5016902;28;20100;-77
2022/09/22 05:05:24;;;;;;;28.60;20.05;;;14.70;90.40;;;;;;5018160;28;20467;-77
2022/09/22 05:07:52;;;;;;;33.45;19.55;;;14.80;90.30;;;;;;5013887;28;20025;-75
2022/09/22 05:10:19;;;;;;;28.38;18.05;;;14.80;90.20;;;;;;5022271;28;20021;-72
2022/09/22 05:12:44;;;;;;;29.13;18.45;;;14.80;90.40;;;;;;5029781;28;20049;-73
2022/09/22 05:15:12;;;;;;;28.90;18.77;;;14.90;90.40;;;;;;5032311;28;20091;-73
2022/09/22 05:17:45;;;;;;;25.27;17.63;;;14.90;90.40;;;;;;5032378;28;20029;-73
2022/09/22 05:20:10;;;;;;;24.08;16.77;;;14.90;90.40;;;;;;5022883;28;20033;-73
2022/09/22 05:22:38;;;;;;;25.65;17.13;;;14.90;90.40;;;;;;5024299;28;20862;-73
2022/09/22 05:25:09;;;;;;;22.45;16.85;;;14.90;90.30;;;;;;5017700;28;20471;-72
2022/09/22 05:27:36;;;;;;;20.60;16.35;;;15.00;90.50;;;;;;5035383;28;20120;-72
2022/09/22 05:30:04;;;;;;;23.15;15.70;;;15.00;90.50;;;;;;5016540;28;20136;-73
2022/09/22 05:32:29;;;;;;;21.50;15.73;;;15.00;90.60;;;;;;5029192;28;20493;-75
2022/09/22 05:34:55;;;;;;;20.35;14.93;;;15.00;90.70;;;;;;5015387;28;20034;-75
2022/09/22 05:37:20;;;;;;;27.50;14.60;;;14.90;90.70;;;;;;5024692;28;20030;-76
2022/09/22 05:39:46;;;;;;;18.05;14.23;;;15.00;90.70;;;;;;5021415;28;20133;-75
2022/09/22 05:42:11;;;;;;;22.67;14.90;;;14.90;90.60;;;;;;5027879;28;20049;-75
2022/09/22 05:44:37;;;;;;;21.98;14.00;;;14.90;90.70;;;;;;5019882;28;20033;-76
2022/09/22 05:47:03;;;;;;;23.48;14.75;;;14.90;90.90;;;;;;5020521;28;20029;-76
2022/09/22 05:49:28;;;;;;;18.33;13.20;;;14.80;91.00;;;;;;5011314;28;20029;-76
2022/09/22 05:51:56;;;;;;;23.83;13.07;;;14.80;91.20;;;;;;5018587;28;20030;-72
2022/09/22 05:54:23;;;;;;;18.15;11.63;;;14.80;91.70;;;;;;5020582;28;20041;-71
2022/09/22 05:56:48;;;;;;;18.80;12.75;;;15.10;91.70;;;;;;5028296;28;20454;-73
2022/09/22 05:59:14;;;;;;;17.02;11.65;;;15.30;91.20;;;;;;5014216;28;20033;-72
2022/09/22 06:01:40;;;;;;;18.38;12.52;;;15.40;91.00;;;;;;5012011;28;20026;-72
2022/09/22 06:04:05;;;;;;;18.48;11.55;;;15.40;90.90;;;;;;5015937;28;20446;-73
2022/09/22 06:06:31;;;;;;;14.52;11.07;;;15.40;90.80;;;;;;5017864;28;20523;-73
2022/09/22 06:08:57;;;;;;;15.27;12.13;;;15.40;90.90;;;;;;5012273;28;20587;-72
2022/09/22 06:11:22;;;;;;;21.60;12.80;;;15.50;90.90;;;;;;5017722;28;20054;-73
2022/09/22 06:13:49;;;;;;;16.33;11.40;;;15.50;91.00;;;;;;5025287;28;20029;-72
2022/09/22 06:16:16;;;;;;;13.52;11.00;;;15.50;90.90;;;;;;5023732;28;20044;-72
2022/09/22 06:18:46;;;;;;;18.40;13.10;;;15.50;91.00;;;;;;5016443;28;20431;-72
2022/09/22 06:21:12;;;;;;;21.65;13.52;;;15.40;91.10;;;;;;5033090;28;20101;-72
2022/09/22 06:23:39;;;;;;;16.38;12.10;;;15.50;91.10;;;;;;5032002;28;20467;-73
2022/09/22 06:26:05;;;;;;;15.60;12.68;;;15.50;91.10;;;;;;5032880;28;20021;-73
2022/09/22 06:28:31;;;;;;;15.85;12.18;;;15.50;91.10;;;;;;5032056;28;20033;-72
2022/09/22 06:30:59;;;;;;;13.35;11.88;;;15.50;91.20;;;;;;5027031;28;20032;-72
2022/09/22 06:33:25;;;;;;;14.50;12.27;;;15.50;91.20;;;;;;5024899;28;20045;-72
2022/09/22 06:35:51;;;;;;;15.02;11.90;;;15.50;91.20;;;;;;5025055;28;20481;-73
2022/09/22 06:38:17;;;;;;;14.57;10.93;;;15.50;91.30;;;;;;5020114;28;20402;-73
2022/09/22 06:40:43;;;;;;;15.25;11.80;;;15.50;91.40;;;;;;5021955;28;20064;-77
2022/09/22 06:43:21;;;;;;;12.20;9.77;;;15.50;91.60;;;;;;5026388;28;20053;-75
2022/09/22 06:45:49;;;;;;;10.88;9.60;;;15.40;91.80;;;;;;5029581;28;20030;-77
2022/09/22 06:48:16;;;;;;;15.43;10.23;;;15.30;91.90;;;;;;5032375;28;20029;-76
2022/09/22 06:50:50;;;;;;;20.55;9.32;;;15.20;92.00;;;;;;5031142;28;20390;-77
2022/09/22 06:53:17;;;;;;;22.38;9.18;;;15.40;92.00;;;;;;5028573;28;20318;-76
2022/09/22 06:55:43;;;;;;;17.38;9.73;;;15.30;92.00;;;;;;5033315;28;20486;-73
2022/09/22 06:58:13;;;;;;;13.57;10.65;;;15.40;92.20;;;;;;5024796;28;20036;-73
2022/09/22 07:00:41;;;;;;;15.23;11.48;;;15.60;92.30;;;;;;5019176;28;20022;-73
2022/09/22 07:03:18;;;;;;;13.43;10.13;;;15.70;92.30;;;;;;5032141;28;20080;-73
2022/09/22 07:05:52;;;;;;;16.73;11.70;;;15.60;92.80;;;;;;5027475;28;20030;-73
2022/09/22 07:08:18;;;;;;;11.70;10.18;;;15.60;92.60;;;;;;5016899;28;20092;-74
2022/09/22 07:10:44;;;;;;;14.52;10.75;;;15.50;92.90;;;;;;5012701;28;20529;-73
2022/09/22 07:13:10;;;;;;;14.23;10.90;;;15.50;93.10;;;;;;5022385;28;20066;-73
2022/09/22 07:15:35;;;;;;;17.10;10.57;;;15.50;93.30;;;;;;5022898;28;20032;-72
2022/09/22 07:18:02;;;;;;;17.10;11.25;;;15.50;93.30;;;;;;5019915;28;20383;-73
2022/09/22 07:20:27;;;;;;;14.45;11.25;;;15.50;93.30;;;;;;5030098;28;20466;-73
2022/09/22 07:22:59;;;;;;;11.85;9.82;;;15.50;93.30;;;;;;5013036;28;20032;-73
2022/09/22 07:25:26;;;;;;;14.30;10.52;;;15.50;93.40;;;;;;5016809;28;20033;-73
2022/09/22 07:27:53;;;;;;;12.57;10.45;;;15.50;93.50;;;;;;5012830;28;20459;-74
2022/09/22 07:30:21;;;;;;;15.63;10.93;;;15.60;93.50;;;;;;5024544;28;20037;-73
2022/09/22 07:32:46;;;;;;;13.65;10.55;;;15.60;93.50;;;;;;5034737;28;20017;-73
2022/09/22 07:35:12;;;;;;;15.40;11.02;;;15.60;93.20;;;;;;5021439;28;20525;-73
2022/09/22 07:37:39;;;;;;;29.65;11.57;;;15.60;93.50;;;;;;5032808;28;20025;-75
2022/09/22 07:40:06;;;;;;;22.98;11.13;;;15.60;93.20;;;;;;5031136;28;20448;-75
2022/09/22 07:42:32;;;;;;;20.30;10.63;;;15.70;93.00;;;;;;5030926;28;20026;-74
2022/09/22 07:45:13;;;;;;;14.43;10.50;;;15.70;93.00;;;;;;5029436;28;20123;-74
2022/09/22 07:50:25;;;;;;;14.35;9.88;;;15.80;92.90;;;;;;5028249;28;20453;-75
2022/09/22 07:52:52;;;;;;;13.95;10.32;;;15.90;92.60;;;;;;5014905;28;20476;-76
2022/09/22 07:55:21;;;;;;;14.55;10.23;;;15.90;92.50;;;;;;5012837;28;20033;-76
2022/09/22 07:57:58;;;;;;;14.68;10.15;;;15.90;92.50;;;;;;5032391;28;20121;-75
2022/09/22 08:00:27;;;;;;;14.27;9.75;;;16.00;92.40;;;;;;5021107;28;20022;-75
2022/09/22 08:02:54;;;;;;;17.35;10.35;;;16.10;92.30;;;;;;5012614;28;20022;-74
2022/09/22 08:05:25;;;;;;;13.45;10.57;;;16.10;92.20;;;;;;5029341;28;20029;-74
2022/09/22 08:07:51;;;;;;;16.27;12.20;;;16.10;92.10;;;;;;5030816;28;20109;-74
2022/09/22 08:10:18;;;;;;;21.50;13.95;;;16.20;92.10;;;;;;5012459;28;20108;-75
2022/09/22 08:12:44;;;;;;;22.23;13.85;;;16.20;91.90;;;;;;5024790;28;20029;-74
2022/09/22 08:15:10;;;;;;;22.83;14.45;;;16.30;91.90;;;;;;5013405;28;20482;-74
2022/09/22 08:17:38;;;;;;;19.45;14.27;;;16.20;91.70;;;;;;5012665;28;20026;-74
2022/09/22 08:20:04;;;;;;;18.88;13.63;;;16.30;91.70;;;;;;5012619;28;20022;-74
2022/09/22 08:22:30;;;;;;;21.52;14.60;;;16.20;91.60;;;;;;5015258;28;20017;-75
2022/09/22 08:24:56;;;;;;;22.55;13.95;;;16.30;91.60;;;;;;5021462;28;20105;-74
2022/09/22 08:27:22;;;;;;;21.27;14.75;;;16.30;91.50;;;;;;5024836;28;20037;-76
2022/09/22 08:29:47;;;;;;;19.20;14.25;;;16.30;91.40;;;;;;5019009;28;20025;-74
2022/09/22 08:32:18;;;;;;;19.98;12.98;;;16.30;91.30;;;;;;5018151;28;20040;-74
2022/09/22 08:34:44;;;;;;;32.33;14.43;;;16.30;91.30;;;;;;5029342;28;20049;-74
2022/09/22 08:37:10;;;;;;;26.00;14.18;;;16.40;91.30;;;;;;5018231;28;20033;-73
2022/09/22 08:39:35;;;;;;;23.58;14.40;;;16.40;91.30;;;;;;5014180;28;20021;-66
2022/09/22 08:42:34;;;;;;;28.25;15.77;;;16.40;91.90;;;;;;5027529;28;20104;-72
2022/09/22 08:45:25;;;;;;;22.75;13.90;;;16.60;91.90;;;;;;5016780;28;20044;-76
2022/09/22 08:53:42;;;;;;;23.67;14.02;;;16.60;91.10;;;;;;5015040;28;20047;-70
2022/09/22 08:56:42;;;;;;;17.67;12.30;;;16.70;91.00;;;;;;5014892;28;20033;-71
2022/09/22 08:59:22;;;;;;;20.77;11.98;;;16.80;90.80;;;;;;5013787;28;20034;-70
2022/09/22 09:02:09;;;;;;;16.13;10.57;;;16.80;90.80;;;;;;5024670;28;20026;-71
2022/09/22 09:05:08;;;;;;;17.05;10.48;;;16.80;90.60;;;;;;5023936;28;20064;-71
2022/09/22 09:08:01;;;;;;;16.58;9.88;;;16.80;90.70;;;;;;5034727;28;20034;-71
2022/09/22 09:10:54;;;;;;;17.40;9.18;;;16.80;90.70;;;;;;5029788;28;20578;-69
2022/09/22 09:13:41;;;;;;;16.27;8.60;;;16.80;90.60;;;;;;5014419;28;20022;-70
2022/09/22 09:16:43;;;;;;;13.68;8.02;;;16.90;90.40;;;;;;5025305;28;20041;-70
2022/09/22 09:19:27;;;;;;;10.68;7.63;;;16.90;90.40;;;;;;5021160;28;20026;-72
2022/09/22 09:22:00;;;;;;;11.57;7.03;;;17.00;90.30;;;;;;5020214;28;20088;-74
2022/09/22 09:24:28;;;;;;;14.05;7.38;;;17.10;90.20;;;;;;5014282;28;20036;-73
2022/09/22 09:27:08;;;;;;;16.77;7.22;;;17.10;90.20;;;;;;5014573;28;20061;-75
2022/09/22 09:29:43;;;;;;;11.82;6.47;;;17.10;90.30;;;;;;5013163;28;20100;-73
2022/09/22 09:32:48;;;;;;;14.05;6.78;;;17.10;90.20;;;;;;5021501;28;20040;-72
2022/09/22 09:35:17;;;;;;;10.23;5.72;;;17.10;90.00;;;;;;5025675;28;20136;-73
2022/09/22 09:37:47;;;;;;;12.27;6.00;;;17.20;89.90;;;;;;5030680;28;20075;-73
2022/09/22 09:40:17;;;;;;;14.88;5.78;;;17.00;90.30;;;;;;5024742;28;20037;-73
2022/09/22 09:42:46;;;;;;;10.30;5.55;;;17.00;90.40;;;;;;5029504;28;20025;-74
2022/09/22 09:45:16;;;;;;;10.70;5.50;;;16.90;90.40;;;;;;5014216;28;20083;-75
2022/09/22 09:47:48;;;;;;;9.40;5.65;;;17.00;90.50;;;;;;5028141;28;20026;-76
2022/09/22 09:50:14;;;;;;;12.03;5.77;;;16.90;90.60;;;;;;5023833;28;20022;-73
2022/09/22 09:52:41;;;;;;;9.43;5.20;;;16.90;90.60;;;;;;5032112;28;20045;-75
2022/09/22 09:55:24;;;;;;;8.60;5.43;;;17.00;90.60;;;;;;5019917;28;20033;-74
2022/09/22 10:00:29;;;;;;;10.43;5.55;;;17.00;90.70;;;;;;5013154;28;20076;-74
2022/09/22 10:00:59;;;;;;;9.73;5.10;;;17.00;90.70;;;;;;5013120;28;20053;-74
2022/09/22 10:03:40;;;;;;;9.13;5.40;;;17.00;90.60;;;;;;5029456;28;20033;-72
2022/09/22 10:06:09;;;;;;;7.47;4.80;;;17.00;90.60;;;;;;5016309;28;20033;-72
2022/09/22 10:08:49;;;;;;;9.27;5.05;;;17.10;90.50;;;;;;5013402;28;20022;-74
2022/09/22 10:11:15;;;;;;;7.22;4.25;;;17.10;90.30;;;;;;5021689;28;20119;-72
2022/09/22 10:13:42;;;;;;;6.75;4.53;;;17.00;90.30;;;;;;5014044;28;20116;-73
2022/09/22 10:16:29;;;;;;;8.75;4.47;;;17.10;90.40;;;;;;5019872;28;20080;-73
2022/09/22 10:19:23;;;;;;;9.18;4.95;;;17.10;90.40;;;;;;5022740;28;20029;-73
2022/09/22 10:21:48;;;;;;;8.40;4.25;;;17.20;90.00;;;;;;5027875;28;20021;-70
2022/09/22 10:24:31;;;;;;;13.55;4.47;;;17.10;90.30;;;;;;5024588;28;20040;-74
2022/09/22 10:26:58;;;;;;;8.48;3.78;;;17.10;90.50;;;;;;5016249;28;20034;-73
2022/09/22 10:29:24;;;;;;;11.65;3.72;;;17.10;90.50;;;;;;5031651;28;20025;-73
2022/09/22 10:32:13;;;;;;;10.32;4.28;;;17.20;90.50;;;;;;5024224;28;20109;-74
2022/09/22 10:34:45;;;;;;;9.35;3.70;;;17.20;89.40;;;;;;5020302;28;20395;-72
2022/09/22 10:37:12;;;;;;;;;;;17.30;89.30;;;;;;5033335;28;20569;-72
2022/09/22 10:39:49;;;;;;;7.55;3.78;;;17.40;90.00;;;;;;5029674;28;20004;-71
2022/09/22 10:42:31;;;;;;;5.50;3.25;;;17.30;89.20;;;;;;5018376;28;20147;-72
2022/09/22 10:45:02;;;;;;;4.97;3.42;;;17.30;89.70;;;;;;5030749;28;20029;-72
2022/09/22 10:47:54;;;;;;;9.40;3.70;;;17.40;89.10;;;;;;5033066;28;20033;-72
2022/09/22 10:50:46;;;;;;;4.50;3.10;;;17.40;88.30;;;;;;5027463;28;20030;-72
2022/09/22 10:53:36;;;;;;;5.20;2.95;;;17.40;88.40;;;;;;5030793;28;20052;-72
2022/09/22 10:56:24;;;;;;;4.78;3.00;;;17.40;88.30;;;;;;5014742;28;20036;-72
2022/09/22 10:59:07;;;;;;;7.88;3.25;;;17.40;88.00;;;;;;5023543;28;20390;-71
2022/09/22 11:02:10;;;;;;;5.70;2.70;;;17.40;87.50;;;;;;5023667;28;20479;-72
2022/09/22 11:05:14;;;;;;;;;;;17.40;87.20;;;;;;5026903;28;20395;-72
2022/09/22 11:14:24;;;;;;;4.95;2.63;;;17.50;85.70;;;;;;5032248;28;20506;-72
2022/09/22 11:16:52;;;;;;;4.13;2.58;;;17.60;86.20;;;;;;5013431;28;20041;-72
2022/09/22 11:19:46;;;;;;;5.78;2.60;;;17.60;85.60;;;;;;5012766;28;20033;-76
2022/09/22 11:22:42;;;;;;;5.40;2.80;;;17.60;85.00;;;;;;5019867;28;20478;-74
2022/09/22 11:25:49;;;;;;;6.70;2.30;;;17.60;85.20;;;;;;5017293;28;20060;-74
2022/09/22 11:28:27;;;;;;;4.13;2.45;;;17.60;85.20;;;;;;5024314;28;20034;-73
2022/09/22 11:30:56;;;;;;;6.32;2.50;;;17.70;85.00;;;;;;5018758;28;20072;-73
2022/09/22 11:33:52;;;;;;;5.30;2.35;;;17.70;84.20;;;;;;5017149;28;20088;-71
2022/09/22 11:36:47;;;;;;;4.22;2.47;;;17.70;84.60;;;;;;5031388;28;20045;-73
2022/09/22 11:39:19;;;;;;;5.18;2.35;;;17.80;83.90;;;;;;5012768;28;20062;-72
2022/09/22 11:42:16;;;;;;;5.93;1.90;;;17.70;84.10;;;;;;5017601;28;20052;-72
2022/09/22 11:44:56;;;;;;;4.70;1.85;;;17.80;84.00;;;;;;5032172;28;20044;-70
2022/09/22 11:47:22;;;;;;;3.08;2.00;;;17.90;83.10;;;;;;5022888;28;20471;-72
2022/09/22 11:50:19;;;;;;;5.07;1.92;;;17.90;82.90;;;;;;5012537;28;20033;-71
2022/09/22 11:52:47;;;;;;;3.30;1.63;;;17.90;82.30;;;;;;5012744;28;20030;-72
2022/09/22 11:55:15;;;;;;;3.80;1.80;;;17.90;81.90;;;;;;5018955;28;20108;-72
2022/09/22 11:57:46;;;;;;;5.80;2.00;;;17.90;82.40;;;;;;5015014;28;20113;-73
2022/09/22 12:00:16;;;;;;;3.70;1.90;;;17.90;82.50;;;;;;5022323;28;20037;-74
2022/09/22 12:02:55;;;;;;;6.13;1.88;;;17.90;81.70;;;;;;5018256;28;20453;-73
2022/09/22 12:05:53;;;;;;;4.75;1.65;;;18.00;82.60;;;;;;5029437;28;20425;-73
2022/09/22 12:08:22;;;;;;;5.72;2.03;;;18.00;82.60;;;;;;5022175;28;20069;-73
2022/09/22 12:10:50;;;;;;;6.55;2.13;;;18.00;82.70;;;;;;5015584;28;20501;-72
2022/09/22 12:13:22;;;;;;;6.50;1.60;;;18.10;83.20;;;;;;5028855;28;20056;-72
2022/09/22 12:16:44;;;;;;;5.25;1.92;;;18.10;83.20;;;;;;5035059;28;20118;-71
2022/09/22 12:19:47;;;;;;;6.85;2.00;;;18.10;83.60;;;;;;4977438;28;20376;-73
2022/09/22 12:22:34;;;;;;;6.72;2.05;;;18.20;82.60;;;;;;5030830;28;20108;-71
2022/09/22 12:25:00;;;;;;;3.33;1.80;;;18.20;80.50;;;;;;5018299;28;20441;-69
2022/09/22 12:27:28;;;;;;;3.33;1.63;;;18.20;80.30;;;;;;5026460;28;20025;-69
2022/09/22 12:29:59;;;;;;;4.28;1.85;;;18.20;80.20;;;;;;5022389;28;20025;-69
2022/09/22 12:32:34;;;;;;;5.13;2.55;;;18.20;80.10;;;;;;5018154;28;20054;-71
2022/09/22 12:35:00;;;;;;;3.25;1.38;;;18.20;80.00;;;;;;5021525;28;20040;-69
2022/09/22 12:37:29;;;;;;;5.47;1.70;;;18.30;80.10;;;;;;5029480;28;20528;-69
2022/09/22 12:40:05;;;;;;;4.30;1.65;;;18.30;80.30;;;;;;5035510;28;20029;-69
2022/09/22 12:42:36;;;;;;;6.72;1.92;;;18.30;80.90;;;;;;5025943;28;20497;-74
2022/09/22 12:45:04;;;;;;;5.13;1.40;;;18.30;80.70;;;;;;5036354;28;20025;-70
2022/09/22 12:47:36;;;;;;;3.70;1.77;;;18.30;80.30;;;;;;5044077;28;20033;-70
2022/09/22 12:50:06;;;;;;;1.70;1.20;;;18.30;80.30;;;;;;5024581;28;20021;-73
2022/09/22 12:52:41;;;;;;;4.03;1.73;;;18.30;77.90;;;;;;5025154;28;20054;-77
2022/09/22 12:55:27;;;;;;;2.92;1.20;;;18.40;76.90;;;;;;5023885;28;20100;-76
2022/09/22 12:57:53;;;;;;;5.85;1.60;;;18.40;79.50;;;;;;5038762;28;20102;-70
2022/09/22 13:00:32;;;;;;;4.45;1.40;;;18.50;80.20;;;;;;5029692;28;20037;-75
2022/09/22 13:02:58;;;;;;;8.27;1.27;;;18.50;80.30;;;;;;5025496;28;20032;-70
2022/09/22 13:05:27;;;;;;;5.05;1.42;;;18.50;80.20;;;;;;5034908;28;20108;-70
2022/09/22 13:07:54;;;;;;;9.15;1.30;;;18.50;80.20;;;;;;5025936;28;20033;-71
2022/09/22 13:10:20;;;;;;;5.82;1.67;;;18.60;80.50;;;;;;5017498;28;20364;-69
2022/09/22 13:13:10;;;;;;;4.40;1.27;;;18.50;80.50;;;;;;5023712;28;20360;-71
2022/09/22 13:15:53;;;;;;;5.07;1.05;;;18.60;80.90;;;;;;5020267;28;20083;-71